sensor_id;sensor_type;location;lat;lon;timestamp;P1;durP1;ratioP1;P2;durP2;ratioP2
28070;SDS011;15383;48.408;9.968;2022-08-21T00:00:39;2.53;;;1.58;;
28070;SDS011;15383;48.408;9.968;2022-08-21T00:03:08;3.45;;;1.50;;
28070;SDS011;15383;48.408;9.968;2022-08-21T00:05:39;1.85;;;1.20;;
28070;SDS011;15383;48.408;9.968;2022-08-21T00:08:07;4.70;;;1.30;;
28070;SDS011;15383;48.408;9.968;2022-08-21T00:10:33;1.83;;;1.70;;
28070;SDS011;15383;48.408;9.968;2022-08-21T00:13:00;6.05;;;1.80;;
28070;SDS011;15383;48.408;9.968;2022-08-21T00:15:28;2.25;;;1.75;;
28070;SDS011;15383;48.408;9.968;2022-08-21T00:17:55;2.78;;;1.52;;
28070;SDS011;15383;48.408;9.968;2022-08-21T00:20:22;1.70;;;1.48;;
28070;SDS011;15383;48.408;9.968;2022-08-21T00:22:48;2.22;;;1.60;;
28070;SDS011;15383;48.408;9.968;2022-08-21T00:25:15;3.80;;;1.65;;
28070;SDS011;15383;48.408;9.968;2022-08-21T00:27:41;1.58;;;1.42;;
28070;SDS011;15383;48.408;9.968;2022-08-21T00:30:09;4.68;;;1.85;;
28070;SDS011;15383;48.408;9.968;2022-08-21T00:32:37;3.45;;;1.75;;
28070;SDS011;15383;48.408;9.968;2022-08-21T00:35:08;2.15;;;1.55;;
28070;SDS011;15383;48.408;9.968;2022-08-21T00:37:36;2.63;;;1.48;;
28070;SDS011;15383;48.408;9.968;2022-08-21T00:40:06;6.17;;;1.97;;
28070;SDS011;15383;48.408;9.968;2022-08-21T00:42:34;4.80;;;1.75;;
28070;SDS011;15383;48.408;9.968;2022-08-21T00:45:00;4.65;;;2.10;;
28070;SDS011;15383;48.408;9.968;2022-08-21T00:47:27;4.90;;;1.58;;
28070;SDS011;15383;48.408;9.968;2022-08-21T00:49:52;7.30;;;1.95;;
28070;SDS011;15383;48.408;9.968;2022-08-21T00:52:21;1.63;;;1.33;;
28070;SDS011;15383;48.408;9.968;2022-08-21T00:54:49;5.00;;;1.70;;
28070;SDS011;15383;48.408;9.968;2022-08-21T00:57:21;1.95;;;1.40;;
28070;SDS011;15383;48.408;9.968;2022-08-21T00:59:51;7.00;;;1.60;;
28070;SDS011;15383;48.408;9.968;2022-08-21T01:02:20;1.35;;;1.10;;
28070;SDS011;15383;48.408;9.968;2022-08-21T01:04:46;4.55;;;1.58;;
28070;SDS011;15383;48.408;9.968;2022-08-21T01:07:12;1.10;;;1.00;;
28070;SDS011;15383;48.408;9.968;2022-08-21T01:12:08;15.18;;;1.70;;
28070;SDS011;15383;48.408;9.968;2022-08-21T01:14:35;1.67;;;1.50;;
28070;SDS011;15383;48.408;9.968;2022-08-21T01:17:02;1.23;;;1.13;;
28070;SDS011;15383;48.408;9.968;2022-08-21T01:19:28;3.75;;;1.55;;
28070;SDS011;15383;48.408;9.968;2022-08-21T01:21:54;1.58;;;1.30;;
28070;SDS011;15383;48.408;9.968;2022-08-21T01:24:21;3.05;;;1.63;;
28070;SDS011;15383;48.408;9.968;2022-08-21T01:26:47;2.05;;;1.40;;
28070;SDS011;15383;48.408;9.968;2022-08-21T01:29:23;3.28;;;1.80;;
28070;SDS011;15383;48.408;9.968;2022-08-21T01:32:09;2.50;;;1.55;;
28070;SDS011;15383;48.408;9.968;2022-08-21T01:34:38;3.85;;;1.60;;
28070;SDS011;15383;48.408;9.968;2022-08-21T01:37:08;6.93;;;1.30;;
28070;SDS011;15383;48.408;9.968;2022-08-21T01:39:34;6.00;;;1.40;;
28070;SDS011;15383;48.408;9.968;2022-08-21T01:42:00;2.97;;;1.50;;
28070;SDS011;15383;48.408;9.968;2022-08-21T01:44:27;7.28;;;1.70;;
28070;SDS011;15383;48.408;9.968;2022-08-21T01:46:53;3.72;;;1.35;;
28070;SDS011;15383;48.408;9.968;2022-08-21T01:49:20;6.03;;;1.60;;
28070;SDS011;15383;48.408;9.968;2022-08-21T01:51:46;4.28;;;1.42;;
28070;SDS011;15383;48.408;9.968;2022-08-21T01:54:11;2.22;;;1.33;;
28070;SDS011;15383;48.408;9.968;2022-08-21T01:56:42;6.00;;;1.50;;
28070;SDS011;15383;48.408;9.968;2022-08-21T01:59:10;6.07;;;1.50;;
28070;SDS011;15383;48.408;9.968;2022-08-21T02:01:36;1.98;;;1.27;;
28070;SDS011;15383;48.408;9.968;2022-08-21T02:04:04;3.00;;;1.55;;
28070;SDS011;15383;48.408;9.968;2022-08-21T02:06:30;1.80;;;1.27;;
28070;SDS011;15383;48.408;9.968;2022-08-21T02:08:56;1.10;;;1.00;;
28070;SDS011;15383;48.408;9.968;2022-08-21T02:11:22;3.35;;;1.45;;
28070;SDS011;15383;48.408;9.968;2022-08-21T02:13:47;1.85;;;1.20;;
28070;SDS011;15383;48.408;9.968;2022-08-21T02:16:13;4.05;;;1.30;;
28070;SDS011;15383;48.408;9.968;2022-08-21T02:18:39;2.55;;;2.10;;
28070;SDS011;15383;48.408;9.968;2022-08-21T02:21:05;1.25;;;1.20;;
28070;SDS011;15383;48.408;9.968;2022-08-21T02:23:31;3.13;;;1.33;;
28070;SDS011;15383;48.408;9.968;2022-08-21T02:25:58;2.63;;;1.60;;
28070;SDS011;15383;48.408;9.968;2022-08-21T02:28:25;5.10;;;1.60;;
28070;SDS011;15383;48.408;9.968;2022-08-21T02:30:51;3.25;;;1.40;;
28070;SDS011;15383;48.408;9.968;2022-08-21T02:33:17;2.53;;;1.70;;
28070;SDS011;15383;48.408;9.968;2022-08-21T02:35:44;1.48;;;1.23;;
28070;SDS011;15383;48.408;9.968;2022-08-21T02:38:12;1.88;;;1.30;;
28070;SDS011;15383;48.408;9.968;2022-08-21T02:40:40;10.20;;;1.55;;
28070;SDS011;15383;48.408;9.968;2022-08-21T02:43:07;3.13;;;1.60;;
28070;SDS011;15383;48.408;9.968;2022-08-21T02:45:34;3.88;;;1.90;;
28070;SDS011;15383;48.408;9.968;2022-08-21T02:48:03;2.28;;;1.48;;
28070;SDS011;15383;48.408;9.968;2022-08-21T02:50:38;2.13;;;1.77;;
28070;SDS011;15383;48.408;9.968;2022-08-21T02:53:06;2.05;;;1.40;;
28070;SDS011;15383;48.408;9.968;2022-08-21T02:55:34;1.58;;;1.27;;
28070;SDS011;15383;48.408;9.968;2022-08-21T02:58:02;1.70;;;1.23;;
28070;SDS011;15383;48.408;9.968;2022-08-21T03:00:30;2.00;;;1.20;;
28070;SDS011;15383;48.408;9.968;2022-08-21T03:02:56;3.63;;;1.80;;
28070;SDS011;15383;48.408;9.968;2022-08-21T03:05:23;3.97;;;1.50;;
28070;SDS011;15383;48.408;9.968;2022-08-21T03:07:50;6.53;;;1.40;;
28070;SDS011;15383;48.408;9.968;2022-08-21T03:10:18;2.00;;;1.30;;
28070;SDS011;15383;48.408;9.968;2022-08-21T03:12:45;6.97;;;1.85;;
28070;SDS011;15383;48.408;9.968;2022-08-21T03:15:12;3.10;;;1.40;;
28070;SDS011;15383;48.408;9.968;2022-08-21T03:17:39;1.60;;;1.30;;
28070;SDS011;15383;48.408;9.968;2022-08-21T03:20:06;2.05;;;1.40;;
28070;SDS011;15383;48.408;9.968;2022-08-21T03:22:33;6.88;;;1.35;;
28070;SDS011;15383;48.408;9.968;2022-08-21T03:24:59;6.95;;;1.60;;
28070;SDS011;15383;48.408;9.968;2022-08-21T03:27:26;3.80;;;1.60;;
28070;SDS011;15383;48.408;9.968;2022-08-21T03:29:53;4.55;;;1.98;;
28070;SDS011;15383;48.408;9.968;2022-08-21T03:32:20;4.53;;;1.77;;
28070;SDS011;15383;48.408;9.968;2022-08-21T03:34:46;2.25;;;1.50;;
28070;SDS011;15383;48.408;9.968;2022-08-21T03:37:12;3.35;;;1.65;;
28070;SDS011;15383;48.408;9.968;2022-08-21T03:39:39;7.50;;;1.75;;
28070;SDS011;15383;48.408;9.968;2022-08-21T03:42:06;1.90;;;1.58;;
28070;SDS011;15383;48.408;9.968;2022-08-21T03:44:32;2.20;;;1.42;;
28070;SDS011;15383;48.408;9.968;2022-08-21T03:46:59;2.65;;;1.65;;
28070;SDS011;15383;48.408;9.968;2022-08-21T03:49:25;3.17;;;1.50;;
28070;SDS011;15383;48.408;9.968;2022-08-21T03:51:51;2.28;;;1.60;;
28070;SDS011;15383;48.408;9.968;2022-08-21T03:54:17;1.20;;;1.10;;
28070;SDS011;15383;48.408;9.968;2022-08-21T03:56:42;5.18;;;1.30;;
28070;SDS011;15383;48.408;9.968;2022-08-21T03:59:08;4.03;;;1.38;;
28070;SDS011;15383;48.408;9.968;2022-08-21T04:01:34;2.30;;;1.60;;
28070;SDS011;15383;48.408;9.968;2022-08-21T04:03:59;2.70;;;1.70;;
28070;SDS011;15383;48.408;9.968;2022-08-21T04:06:25;1.60;;;1.50;;
28070;SDS011;15383;48.408;9.968;2022-08-21T04:08:51;4.32;;;1.67;;
28070;SDS011;15383;48.408;9.968;2022-08-21T04:11:18;4.97;;;1.50;;
28070;SDS011;15383;48.408;9.968;2022-08-21T04:13:44;5.45;;;2.00;;
28070;SDS011;15383;48.408;9.968;2022-08-21T04:16:10;1.67;;;1.52;;
28070;SDS011;15383;48.408;9.968;2022-08-21T04:18:36;2.00;;;1.38;;
28070;SDS011;15383;48.408;9.968;2022-08-21T04:21:01;1.77;;;1.35;;
28070;SDS011;15383;48.408;9.968;2022-08-21T04:23:28;4.35;;;1.70;;
28070;SDS011;15383;48.408;9.968;2022-08-21T04:25:54;4.35;;;1.38;;
28070;SDS011;15383;48.408;9.968;2022-08-21T04:28:22;2.65;;;1.40;;
28070;SDS011;15383;48.408;9.968;2022-08-21T04:30:48;2.38;;;1.50;;
28070;SDS011;15383;48.408;9.968;2022-08-21T04:33:15;2.33;;;1.67;;
28070;SDS011;15383;48.408;9.968;2022-08-21T04:35:41;4.28;;;1.70;;
28070;SDS011;15383;48.408;9.968;2022-08-21T04:38:07;1.38;;;1.25;;
28070;SDS011;15383;48.408;9.968;2022-08-21T04:40:33;2.90;;;1.48;;
28070;SDS011;15383;48.408;9.968;2022-08-21T04:43:03;9.48;;;1.73;;
28070;SDS011;15383;48.408;9.968;2022-08-21T04:45:31;5.93;;;1.85;;
28070;SDS011;15383;48.408;9.968;2022-08-21T04:48:00;1.75;;;1.48;;
28070;SDS011;15383;48.408;9.968;2022-08-21T04:50:29;1.85;;;1.33;;
28070;SDS011;15383;48.408;9.968;2022-08-21T04:53:04;3.30;;;1.60;;
28070;SDS011;15383;48.408;9.968;2022-08-21T04:55:32;6.15;;;1.50;;
28070;SDS011;15383;48.408;9.968;2022-08-21T04:57:57;2.25;;;1.38;;
28070;SDS011;15383;48.408;9.968;2022-08-21T05:00:24;3.47;;;1.50;;
28070;SDS011;15383;48.408;9.968;2022-08-21T05:02:51;7.57;;;1.73;;
28070;SDS011;15383;48.408;9.968;2022-08-21T05:05:21;2.63;;;1.52;;
28070;SDS011;15383;48.408;9.968;2022-08-21T05:07:47;6.10;;;1.58;;
28070;SDS011;15383;48.408;9.968;2022-08-21T05:10:13;2.13;;;1.40;;
28070;SDS011;15383;48.408;9.968;2022-08-21T05:12:40;2.30;;;1.63;;
28070;SDS011;15383;48.408;9.968;2022-08-21T05:15:07;2.63;;;1.60;;
28070;SDS011;15383;48.408;9.968;2022-08-21T05:17:33;2.22;;;1.70;;
28070;SDS011;15383;48.408;9.968;2022-08-21T05:19:59;3.92;;;1.55;;
28070;SDS011;15383;48.408;9.968;2022-08-21T05:22:24;2.22;;;1.58;;
28070;SDS011;15383;48.408;9.968;2022-08-21T05:24:50;1.52;;;1.40;;
28070;SDS011;15383;48.408;9.968;2022-08-21T05:27:17;7.72;;;1.60;;
28070;SDS011;15383;48.408;9.968;2022-08-21T05:29:42;2.97;;;1.95;;
28070;SDS011;15383;48.408;9.968;2022-08-21T05:32:09;4.43;;;1.83;;
28070;SDS011;15383;48.408;9.968;2022-08-21T05:34:36;1.67;;;1.48;;
28070;SDS011;15383;48.408;9.968;2022-08-21T05:37:02;6.28;;;1.45;;
28070;SDS011;15383;48.408;9.968;2022-08-21T05:39:28;2.33;;;1.80;;
28070;SDS011;15383;48.408;9.968;2022-08-21T05:41:53;2.47;;;1.63;;
28070;SDS011;15383;48.408;9.968;2022-08-21T05:44:19;6.05;;;1.70;;
28070;SDS011;15383;48.408;9.968;2022-08-21T05:46:44;3.35;;;1.67;;
28070;SDS011;15383;48.408;9.968;2022-08-21T05:49:10;4.20;;;1.55;;
28070;SDS011;15383;48.408;9.968;2022-08-21T05:51:36;5.32;;;2.05;;
28070;SDS011;15383;48.408;9.968;2022-08-21T05:54:04;5.53;;;1.70;;
28070;SDS011;15383;48.408;9.968;2022-08-21T05:56:30;3.22;;;1.60;;
28070;SDS011;15383;48.408;9.968;2022-08-21T05:58:56;5.10;;;1.50;;
28070;SDS011;15383;48.408;9.968;2022-08-21T06:01:22;2.58;;;1.80;;
28070;SDS011;15383;48.408;9.968;2022-08-21T06:03:48;3.67;;;1.80;;
28070;SDS011;15383;48.408;9.968;2022-08-21T06:06:14;3.38;;;1.58;;
28070;SDS011;15383;48.408;9.968;2022-08-21T06:08:40;6.32;;;1.60;;
28070;SDS011;15383;48.408;9.968;2022-08-21T06:11:08;1.75;;;1.58;;
28070;SDS011;15383;48.408;9.968;2022-08-21T06:13:35;3.45;;;1.73;;
28070;SDS011;15383;48.408;9.968;2022-08-21T06:16:08;3.83;;;1.70;;
28070;SDS011;15383;48.408;9.968;2022-08-21T06:18:39;1.92;;;1.60;;
28070;SDS011;15383;48.408;9.968;2022-08-21T06:21:06;4.85;;;2.00;;
28070;SDS011;15383;48.408;9.968;2022-08-21T06:23:32;4.40;;;1.60;;
28070;SDS011;15383;48.408;9.968;2022-08-21T06:25:59;4.50;;;2.15;;
28070;SDS011;15383;48.408;9.968;2022-08-21T06:28:25;4.95;;;2.08;;
28070;SDS011;15383;48.408;9.968;2022-08-21T06:30:51;5.28;;;2.00;;
28070;SDS011;15383;48.408;9.968;2022-08-21T06:33:16;3.35;;;2.10;;
28070;SDS011;15383;48.408;9.968;2022-08-21T06:35:42;4.00;;;1.95;;
28070;SDS011;15383;48.408;9.968;2022-08-21T06:38:08;5.97;;;2.25;;
28070;SDS011;15383;48.408;9.968;2022-08-21T06:40:34;2.55;;;1.77;;
28070;SDS011;15383;48.408;9.968;2022-08-21T06:43:57;7.05;;;2.13;;
28070;SDS011;15383;48.408;9.968;2022-08-21T06:46:26;2.85;;;1.65;;
28070;SDS011;15383;48.408;9.968;2022-08-21T06:49:54;2.03;;;1.80;;
28070;SDS011;15383;48.408;9.968;2022-08-21T06:52:40;3.92;;;2.20;;
28070;SDS011;15383;48.408;9.968;2022-08-21T06:55:07;2.08;;;1.83;;
28070;SDS011;15383;48.408;9.968;2022-08-21T06:57:34;4.28;;;2.08;;
28070;SDS011;15383;48.408;9.968;2022-08-21T06:59:59;5.53;;;1.75;;
28070;SDS011;15383;48.408;9.968;2022-08-21T07:02:25;2.67;;;2.13;;
28070;SDS011;15383;48.408;9.968;2022-08-21T07:04:51;5.20;;;2.10;;
28070;SDS011;15383;48.408;9.968;2022-08-21T07:07:17;3.33;;;1.98;;
28070;SDS011;15383;48.408;9.968;2022-08-21T07:09:42;4.63;;;2.13;;
28070;SDS011;15383;48.408;9.968;2022-08-21T07:12:08;5.07;;;1.98;;
28070;SDS011;15383;48.408;9.968;2022-08-21T07:14:35;6.88;;;2.47;;
28070;SDS011;15383;48.408;9.968;2022-08-21T07:17:00;3.35;;;2.03;;
28070;SDS011;15383;48.408;9.968;2022-08-21T07:19:26;3.00;;;1.95;;
28070;SDS011;15383;48.408;9.968;2022-08-21T07:21:53;5.30;;;2.30;;
28070;SDS011;15383;48.408;9.968;2022-08-21T07:24:23;5.57;;;2.38;;
28070;SDS011;15383;48.408;9.968;2022-08-21T07:26:49;7.00;;;2.30;;
28070;SDS011;15383;48.408;9.968;2022-08-21T07:29:15;5.22;;;1.85;;
28070;SDS011;15383;48.408;9.968;2022-08-21T07:31:40;10.98;;;2.72;;
28070;SDS011;15383;48.408;9.968;2022-08-21T07:34:06;3.88;;;2.30;;
28070;SDS011;15383;48.408;9.968;2022-08-21T07:36:33;5.70;;;2.53;;
28070;SDS011;15383;48.408;9.968;2022-08-21T07:38:58;5.75;;;2.38;;
28070;SDS011;15383;48.408;9.968;2022-08-21T07:41:26;3.60;;;2.30;;
28070;SDS011;15383;48.408;9.968;2022-08-21T07:43:54;3.57;;;2.40;;
28070;SDS011;15383;48.408;9.968;2022-08-21T07:46:20;4.97;;;2.42;;
28070;SDS011;15383;48.408;9.968;2022-08-21T07:48:46;4.60;;;2.67;;
28070;SDS011;15383;48.408;9.968;2022-08-21T07:51:12;4.47;;;2.47;;
28070;SDS011;15383;48.408;9.968;2022-08-21T07:53:41;3.70;;;2.50;;
28070;SDS011;15383;48.408;9.968;2022-08-21T07:56:09;4.35;;;2.55;;
28070;SDS011;15383;48.408;9.968;2022-08-21T08:01:21;6.82;;;3.20;;
28070;SDS011;15383;48.408;9.968;2022-08-21T08:03:47;4.95;;;3.10;;
28070;SDS011;15383;48.408;9.968;2022-08-21T08:06:13;5.60;;;2.78;;
28070;SDS011;15383;48.408;9.968;2022-08-21T08:08:39;8.55;;;3.78;;
28070;SDS011;15383;48.408;9.968;2022-08-21T08:11:05;7.10;;;3.83;;
28070;SDS011;15383;48.408;9.968;2022-08-21T08:13:31;10.90;;;3.85;;
28070;SDS011;15383;48.408;9.968;2022-08-21T08:16:02;6.07;;;3.47;;
28070;SDS011;15383;48.408;9.968;2022-08-21T08:18:28;7.78;;;3.70;;
28070;SDS011;15383;48.408;9.968;2022-08-21T08:21:09;7.90;;;4.35;;
28070;SDS011;15383;48.408;9.968;2022-08-21T08:23:35;8.00;;;3.70;;
28070;SDS011;15383;48.408;9.968;2022-08-21T08:26:01;5.32;;;3.58;;
28070;SDS011;15383;48.408;9.968;2022-08-21T08:28:27;9.07;;;3.83;;
28070;SDS011;15383;48.408;9.968;2022-08-21T08:30:54;8.65;;;4.00;;
28070;SDS011;15383;48.408;9.968;2022-08-21T08:33:20;7.05;;;4.47;;
28070;SDS011;15383;48.408;9.968;2022-08-21T08:35:46;9.27;;;4.47;;
28070;SDS011;15383;48.408;9.968;2022-08-21T08:38:14;6.20;;;3.85;;
28070;SDS011;15383;48.408;9.968;2022-08-21T08:40:52;6.85;;;4.30;;
28070;SDS011;15383;48.408;9.968;2022-08-21T08:43:27;9.05;;;4.50;;
28070;SDS011;15383;48.408;9.968;2022-08-21T08:45:55;6.05;;;3.85;;
28070;SDS011;15383;48.408;9.968;2022-08-21T08:48:39;6.83;;;3.73;;
28070;SDS011;15383;48.408;9.968;2022-08-21T08:51:48;7.63;;;3.80;;
28070;SDS011;15383;48.408;9.968;2022-08-21T08:57:00;8.05;;;2.88;;
28070;SDS011;15383;48.408;9.968;2022-08-21T08:59:33;18.70;;;3.30;;
28070;SDS011;15383;48.408;9.968;2022-08-21T09:02:04;8.70;;;2.80;;
28070;SDS011;15383;48.408;9.968;2022-08-21T09:04:30;7.30;;;2.90;;
28070;SDS011;15383;48.408;9.968;2022-08-21T09:12:30;12.43;;;2.28;;
28070;SDS011;15383;48.408;9.968;2022-08-21T09:21:18;7.97;;;2.97;;
28070;SDS011;15383;48.408;9.968;2022-08-21T09:23:57;6.65;;;2.58;;
28070;SDS011;15383;48.408;9.968;2022-08-21T09:26:31;8.80;;;2.45;;
28070;SDS011;15383;48.408;9.968;2022-08-21T09:29:21;11.35;;;2.47;;
28070;SDS011;15383;48.408;9.968;2022-08-21T09:31:50;12.17;;;2.80;;
28070;SDS011;15383;48.408;9.968;2022-08-21T09:34:24;8.25;;;2.70;;
28070;SDS011;15383;48.408;9.968;2022-08-21T09:36:56;5.68;;;2.40;;
28070;SDS011;15383;48.408;9.968;2022-08-21T09:39:27;10.77;;;2.67;;
28070;SDS011;15383;48.408;9.968;2022-08-21T09:42:03;7.75;;;2.38;;
28070;SDS011;15383;48.408;9.968;2022-08-21T09:44:32;3.75;;;2.38;;
28070;SDS011;15383;48.408;9.968;2022-08-21T09:47:04;6.50;;;2.60;;
28070;SDS011;15383;48.408;9.968;2022-08-21T09:49:31;7.65;;;2.95;;
28070;SDS011;15383;48.408;9.968;2022-08-21T09:51:58;9.13;;;3.13;;
28070;SDS011;15383;48.408;9.968;2022-08-21T09:54:29;11.57;;;2.78;;
28070;SDS011;15383;48.408;9.968;2022-08-21T09:59:53;4.13;;;2.63;;
28070;SDS011;15383;48.408;9.968;2022-08-21T10:04:55;6.45;;;2.30;;
28070;SDS011;15383;48.408;9.968;2022-08-21T10:07:24;11.27;;;3.85;;
28070;SDS011;15383;48.408;9.968;2022-08-21T10:10:08;6.55;;;2.50;;
28070;SDS011;15383;48.408;9.968;2022-08-21T10:15:26;6.70;;;2.30;;
28070;SDS011;15383;48.408;9.968;2022-08-21T10:18:22;4.93;;;2.83;;
28070;SDS011;15383;48.408;9.968;2022-08-21T10:21:09;15.00;;;3.15;;
28070;SDS011;15383;48.408;9.968;2022-08-21T10:34:28;5.57;;;2.60;;
28070;SDS011;15383;48.408;9.968;2022-08-21T10:47:40;5.22;;;2.28;;
28070;SDS011;15383;48.408;9.968;2022-08-21T10:55:33;4.50;;;2.50;;
28070;SDS011;15383;48.408;9.968;2022-08-21T10:58:05;4.32;;;2.15;;
28070;SDS011;15383;48.408;9.968;2022-08-21T11:00:45;6.45;;;2.10;;
28070;SDS011;15383;48.408;9.968;2022-08-21T11:06:15;6.22;;;2.47;;
28070;SDS011;15383;48.408;9.968;2022-08-21T11:08:46;3.28;;;2.30;;
28070;SDS011;15383;48.408;9.968;2022-08-21T11:13:54;5.70;;;2.22;;
28070;SDS011;15383;48.408;9.968;2022-08-21T11:18:50;3.97;;;2.25;;
28070;SDS011;15383;48.408;9.968;2022-08-21T11:21:54;5.47;;;2.13;;
28070;SDS011;15383;48.408;9.968;2022-08-21T11:30:02;6.70;;;2.80;;
28070;SDS011;15383;48.408;9.968;2022-08-21T11:38:00;11.83;;;3.30;;
28070;SDS011;15383;48.408;9.968;2022-08-21T11:41:17;10.43;;;2.45;;
28070;SDS011;15383;48.408;9.968;2022-08-21T11:46:47;3.97;;;2.40;;
28070;SDS011;15383;48.408;9.968;2022-08-21T11:56:55;3.17;;;1.95;;
28070;SDS011;15383;48.408;9.968;2022-08-21T11:59:37;9.23;;;2.33;;
28070;SDS011;15383;48.408;9.968;2022-08-21T12:02:18;7.22;;;2.53;;
28070;SDS011;15383;48.408;9.968;2022-08-21T12:04:54;5.93;;;2.35;;
28070;SDS011;15383;48.408;9.968;2022-08-21T12:07:40;5.15;;;2.58;;
28070;SDS011;15383;48.408;9.968;2022-08-21T12:10:12;4.60;;;2.25;;
28070;SDS011;15383;48.408;9.968;2022-08-21T12:12:41;5.25;;;2.25;;
28070;SDS011;15383;48.408;9.968;2022-08-21T12:17:57;3.03;;;2.35;;
28070;SDS011;15383;48.408;9.968;2022-08-21T12:20:36;12.70;;;2.72;;
28070;SDS011;15383;48.408;9.968;2022-08-21T12:25:39;6.53;;;2.67;;
28070;SDS011;15383;48.408;9.968;2022-08-21T12:28:09;5.05;;;2.08;;
28070;SDS011;15383;48.408;9.968;2022-08-21T12:33:17;5.72;;;2.25;;
28070;SDS011;15383;48.408;9.968;2022-08-21T12:35:46;5.25;;;2.58;;
28070;SDS011;15383;48.408;9.968;2022-08-21T12:43:38;11.38;;;2.50;;
28070;SDS011;15383;48.408;9.968;2022-08-21T12:46:15;6.00;;;2.88;;
28070;SDS011;15383;48.408;9.968;2022-08-21T12:51:16;7.18;;;2.65;;
28070;SDS011;15383;48.408;9.968;2022-08-21T12:56:26;3.80;;;2.22;;
28070;SDS011;15383;48.408;9.968;2022-08-21T12:58:56;5.45;;;2.90;;
28070;SDS011;15383;48.408;9.968;2022-08-21T13:04:01;9.85;;;2.60;;
28070;SDS011;15383;48.408;9.968;2022-08-21T13:06:38;6.72;;;2.70;;
28070;SDS011;15383;48.408;9.968;2022-08-21T13:09:07;7.03;;;2.67;;
28070;SDS011;15383;48.408;9.968;2022-08-21T13:11:36;4.33;;;2.67;;
28070;SDS011;15383;48.408;9.968;2022-08-21T13:14:02;6.68;;;2.42;;
28070;SDS011;15383;48.408;9.968;2022-08-21T13:16:29;9.20;;;2.88;;
28070;SDS011;15383;48.408;9.968;2022-08-21T13:19:03;5.82;;;2.63;;
28070;SDS011;15383;48.408;9.968;2022-08-21T13:21:38;7.45;;;2.92;;
28070;SDS011;15383;48.408;9.968;2022-08-21T13:24:27;5.25;;;2.70;;
28070;SDS011;15383;48.408;9.968;2022-08-21T13:26:57;6.90;;;2.70;;
28070;SDS011;15383;48.408;9.968;2022-08-21T13:29:31;4.60;;;2.50;;
28070;SDS011;15383;48.408;9.968;2022-08-21T13:32:01;6.25;;;2.90;;
28070;SDS011;15383;48.408;9.968;2022-08-21T13:34:30;11.95;;;3.05;;
28070;SDS011;15383;48.408;9.968;2022-08-21T13:37:00;5.85;;;2.45;;
28070;SDS011;15383;48.408;9.968;2022-08-21T13:39:29;8.00;;;2.42;;
28070;SDS011;15383;48.408;9.968;2022-08-21T13:41:57;3.45;;;2.33;;
28070;SDS011;15383;48.408;9.968;2022-08-21T13:44:44;3.53;;;2.20;;
28070;SDS011;15383;48.408;9.968;2022-08-21T13:47:12;7.28;;;2.78;;
28070;SDS011;15383;48.408;9.968;2022-08-21T13:49:40;13.27;;;2.38;;
28070;SDS011;15383;48.408;9.968;2022-08-21T13:52:21;6.65;;;2.90;;
28070;SDS011;15383;48.408;9.968;2022-08-21T13:55:08;5.32;;;2.30;;
28070;SDS011;15383;48.408;9.968;2022-08-21T13:57:38;5.90;;;2.30;;
28070;SDS011;15383;48.408;9.968;2022-08-21T14:00:11;9.70;;;2.58;;
28070;SDS011;15383;48.408;9.968;2022-08-21T14:03:02;5.70;;;2.10;;
28070;SDS011;15383;48.408;9.968;2022-08-21T14:05:33;2.58;;;1.88;;
28070;SDS011;15383;48.408;9.968;2022-08-21T14:08:03;5.20;;;2.23;;
28070;SDS011;15383;48.408;9.968;2022-08-21T14:10:36;4.72;;;2.50;;
28070;SDS011;15383;48.408;9.968;2022-08-21T14:13:22;4.55;;;2.13;;
28070;SDS011;15383;48.408;9.968;2022-08-21T14:15:59;4.05;;;1.95;;
28070;SDS011;15383;48.408;9.968;2022-08-21T14:18:26;6.70;;;1.98;;
28070;SDS011;15383;48.408;9.968;2022-08-21T14:21:03;4.25;;;2.15;;
28070;SDS011;15383;48.408;9.968;2022-08-21T14:23:30;5.63;;;2.60;;
28070;SDS011;15383;48.408;9.968;2022-08-21T14:25:58;8.23;;;2.35;;
28070;SDS011;15383;48.408;9.968;2022-08-21T14:28:26;7.25;;;2.05;;
28070;SDS011;15383;48.408;9.968;2022-08-21T14:30:55;2.55;;;1.92;;
28070;SDS011;15383;48.408;9.968;2022-08-21T14:33:25;3.85;;;2.40;;
28070;SDS011;15383;48.408;9.968;2022-08-21T14:35:53;5.70;;;2.45;;
28070;SDS011;15383;48.408;9.968;2022-08-21T14:38:20;6.43;;;2.40;;
28070;SDS011;15383;48.408;9.968;2022-08-21T14:40:48;9.88;;;2.13;;
28070;SDS011;15383;48.408;9.968;2022-08-21T14:43:16;8.93;;;2.13;;
28070;SDS011;15383;48.408;9.968;2022-08-21T14:45:43;7.82;;;2.35;;
28070;SDS011;15383;48.408;9.968;2022-08-21T14:48:10;3.10;;;1.98;;
28070;SDS011;15383;48.408;9.968;2022-08-21T14:50:36;4.82;;;2.17;;
28070;SDS011;15383;48.408;9.968;2022-08-21T14:53:02;3.38;;;2.00;;
28070;SDS011;15383;48.408;9.968;2022-08-21T14:55:29;5.32;;;2.03;;
28070;SDS011;15383;48.408;9.968;2022-08-21T14:58:16;6.63;;;2.20;;
28070;SDS011;15383;48.408;9.968;2022-08-21T15:00:41;8.32;;;2.25;;
28070;SDS011;15383;48.408;9.968;2022-08-21T15:03:07;4.05;;;2.25;;
28070;SDS011;15383;48.408;9.968;2022-08-21T15:05:33;3.88;;;2.15;;
28070;SDS011;15383;48.408;9.968;2022-08-21T15:07:59;8.50;;;2.83;;
28070;SDS011;15383;48.408;9.968;2022-08-21T15:10:25;4.28;;;2.53;;
28070;SDS011;15383;48.408;9.968;2022-08-21T15:12:50;3.75;;;2.35;;
28070;SDS011;15383;48.408;9.968;2022-08-21T15:15:16;5.13;;;2.05;;
28070;SDS011;15383;48.408;9.968;2022-08-21T15:17:42;7.95;;;2.72;;
28070;SDS011;15383;48.408;9.968;2022-08-21T15:20:07;4.35;;;2.15;;
28070;SDS011;15383;48.408;9.968;2022-08-21T15:22:34;4.97;;;2.63;;
28070;SDS011;15383;48.408;9.968;2022-08-21T15:25:00;4.40;;;2.15;;
28070;SDS011;15383;48.408;9.968;2022-08-21T15:27:26;5.53;;;2.25;;
28070;SDS011;15383;48.408;9.968;2022-08-21T15:29:53;15.70;;;3.00;;
28070;SDS011;15383;48.408;9.968;2022-08-21T15:32:26;4.22;;;1.70;;
28070;SDS011;15383;48.408;9.968;2022-08-21T15:34:54;4.68;;;2.20;;
28070;SDS011;15383;48.408;9.968;2022-08-21T15:37:20;4.05;;;2.15;;
28070;SDS011;15383;48.408;9.968;2022-08-21T15:39:47;4.38;;;2.03;;
28070;SDS011;15383;48.408;9.968;2022-08-21T15:42:14;11.25;;;2.00;;
28070;SDS011;15383;48.408;9.968;2022-08-21T15:44:40;3.65;;;1.95;;
28070;SDS011;15383;48.408;9.968;2022-08-21T15:47:09;4.95;;;2.03;;
28070;SDS011;15383;48.408;9.968;2022-08-21T15:49:38;6.07;;;2.20;;
28070;SDS011;15383;48.408;9.968;2022-08-21T15:52:07;4.78;;;2.30;;
28070;SDS011;15383;48.408;9.968;2022-08-21T15:54:33;7.57;;;2.97;;
28070;SDS011;15383;48.408;9.968;2022-08-21T15:56:59;3.42;;;2.42;;
28070;SDS011;15383;48.408;9.968;2022-08-21T15:59:24;7.65;;;2.80;;
28070;SDS011;15383;48.408;9.968;2022-08-21T16:01:51;5.85;;;2.10;;
28070;SDS011;15383;48.408;9.968;2022-08-21T16:04:26;6.57;;;2.53;;
28070;SDS011;15383;48.408;9.968;2022-08-21T16:06:53;6.75;;;2.30;;
28070;SDS011;15383;48.408;9.968;2022-08-21T16:09:19;5.82;;;2.08;;
28070;SDS011;15383;48.408;9.968;2022-08-21T16:11:44;4.18;;;2.55;;
28070;SDS011;15383;48.408;9.968;2022-08-21T16:14:14;5.88;;;1.80;;
28070;SDS011;15383;48.408;9.968;2022-08-21T16:19:06;5.35;;;1.95;;
28070;SDS011;15383;48.408;9.968;2022-08-21T16:21:33;7.85;;;2.05;;
28070;SDS011;15383;48.408;9.968;2022-08-21T16:23:59;2.88;;;1.80;;
28070;SDS011;15383;48.408;9.968;2022-08-21T16:26:25;4.53;;;1.90;;
28070;SDS011;15383;48.408;9.968;2022-08-21T16:28:52;3.70;;;1.88;;
28070;SDS011;15383;48.408;9.968;2022-08-21T16:31:22;3.35;;;1.90;;
28070;SDS011;15383;48.408;9.968;2022-08-21T16:33:49;3.20;;;2.05;;
28070;SDS011;15383;48.408;9.968;2022-08-21T16:36:17;2.63;;;2.00;;
28070;SDS011;15383;48.408;9.968;2022-08-21T16:38:43;5.07;;;2.22;;
28070;SDS011;15383;48.408;9.968;2022-08-21T16:41:11;2.40;;;1.70;;
28070;SDS011;15383;48.408;9.968;2022-08-21T16:43:40;3.55;;;2.05;;
28070;SDS011;15383;48.408;9.968;2022-08-21T16:46:07;3.83;;;2.10;;
28070;SDS011;15383;48.408;9.968;2022-08-21T16:48:35;7.47;;;2.25;;